createdAt,value
2019-06-26T00:01:16.368Z,60.30
2019-06-26T00:04:03.955Z,60.35
2019-06-26T00:06:51.753Z,60.83
2019-06-26T00:09:39.079Z,60.69
2019-06-26T00:12:26.131Z,60.34
2019-06-26T00:15:13.606Z,60.24
2019-06-26T00:18:01.536Z,60.98
2019-06-26T00:20:49.188Z,61.65
2019-06-26T00:23:36.247Z,62.32
2019-06-26T00:26:23.711Z,62.03
2019-06-26T00:29:11.489Z,61.57
2019-06-26T00:31:58.977Z,61.47
2019-06-26T00:34:46.394Z,61.18
2019-06-26T00:37:34.086Z,61.21
2019-06-26T00:40:21.444Z,59.85
2019-06-26T00:43:08.855Z,59.76
2019-06-26T00:45:56.129Z,60.70
2019-06-26T00:48:43.175Z,60.97
2019-06-26T00:51:30.845Z,61.45
2019-06-26T00:54:18.930Z,61.22
2019-06-26T00:57:06.054Z,61.10
2019-06-26T00:59:53.184Z,61.22
2019-06-26T01:02:40.692Z,61.65
2019-06-26T01:05:28.352Z,62.23
2019-06-26T01:08:16.203Z,62.89
2019-06-26T01:11:03.332Z,62.27
2019-06-26T01:13:58.141Z,62.03
2019-06-26T01:16:40.383Z,62.65
2019-06-26T01:19:27.771Z,62.76
2019-06-26T01:22:15.166Z,62.46
2019-06-26T01:25:02.688Z,62.61
2019-06-26T01:27:50.095Z,62.67
2019-06-26T01:30:37.720Z,62.89
2019-06-26T01:33:25.275Z,62.34
2019-06-26T01:36:12.417Z,62.72
2019-06-26T01:38:59.562Z,62.43
2019-06-26T01:41:47.098Z,61.86
2019-06-26T01:44:34.852Z,61.23
2019-06-26T01:47:22.376Z,62.16
2019-06-26T01:50:09.513Z,62.30
2019-06-26T01:52:57.247Z,62.73
2019-06-26T01:55:44.877Z,61.66
2019-06-26T01:58:33.082Z,61.40
2019-06-26T02:01:20.408Z,61.58
2019-06-26T02:04:07.432Z,61.20
2019-06-26T02:06:54.733Z,61.83
2019-06-26T02:09:42.195Z,62.35
2019-06-26T02:12:29.895Z,62.73
2019-06-26T02:15:17.468Z,63.10
2019-06-26T02:18:06.963Z,63.56
2019-06-26T02:20:54.465Z,63.84
2019-06-26T02:23:42.229Z,63.75
2019-06-26T02:26:29.605Z,64.16
2019-06-26T02:29:17.654Z,64.87
2019-06-26T02:32:05.412Z,64.90
2019-06-26T02:34:52.500Z,65.05
2019-06-26T02:37:40.276Z,65.34
2019-06-26T02:40:28.121Z,64.95
2019-06-26T02:43:15.845Z,65.35
2019-06-26T02:46:02.951Z,65.50
2019-06-26T02:48:51.176Z,65.19
2019-06-26T02:51:38.736Z,65.26
2019-06-26T02:54:26.125Z,65.60
2019-06-26T02:57:13.704Z,65.91
2019-06-26T03:00:01.462Z,65.75
2019-06-26T03:02:49.395Z,65.66
2019-06-26T03:05:36.559Z,66.12
2019-06-26T03:08:24.269Z,66.57
2019-06-26T03:11:12.128Z,66.75
2019-06-26T03:13:59.658Z,66.76
2019-06-26T03:16:46.965Z,67.16
2019-06-26T03:19:34.357Z,67.05
2019-06-26T03:22:21.465Z,69.30
2019-06-26T03:25:10.779Z,70.21
2019-06-26T03:27:58.433Z,70.17
2019-06-26T03:30:46.262Z,70.78
2019-06-26T03:33:33.662Z,70.81
2019-06-26T03:36:21.068Z,70.88
2019-06-26T03:39:09.045Z,70.47
2019-06-26T03:41:56.194Z,70.65
2019-06-26T03:44:43.430Z,70.37
2019-06-26T03:47:31.149Z,70.29
2019-06-26T03:50:20.151Z,69.85
2019-06-26T03:53:07.702Z,69.40
2019-06-26T03:55:55.080Z,69.43
2019-06-26T03:58:42.149Z,69.19
2019-06-26T04:01:29.890Z,68.77
2019-06-26T04:04:17.446Z,68.36
2019-06-26T04:07:05.023Z,68.13
2019-06-26T04:09:52.113Z,67.95
2019-06-26T04:12:39.679Z,67.92
2019-06-26T04:15:40.894Z,68.05
2019-06-26T04:18:16.975Z,67.22
2019-06-26T04:21:04.220Z,66.90
2019-06-26T04:23:51.670Z,66.58
2019-06-26T04:26:41.428Z,66.34
2019-06-26T04:29:29.031Z,66.04
2019-06-26T04:32:16.611Z,65.31
2019-06-26T04:35:04.362Z,64.59
2019-06-26T04:37:51.807Z,64.46
2019-06-26T04:40:39.147Z,63.41
2019-06-26T04:43:26.534Z,63.14
2019-06-26T04:46:13.747Z,62.75
2019-06-26T04:49:00.974Z,62.23
2019-06-26T04:51:48.284Z,62.24
2019-06-26T04:54:35.719Z,61.87
2019-06-26T04:57:29.891Z,61.36
2019-06-26T05:00:20.893Z,60.74
2019-06-26T05:03:07.459Z,60.45
2019-06-26T05:05:55.087Z,59.59
2019-06-26T05:08:42.459Z,59.02
2019-06-26T05:11:30.294Z,58.18
2019-06-26T05:14:17.535Z,57.66
2019-06-26T05:17:04.988Z,57.09
2019-06-26T05:19:52.399Z,56.53
2019-06-26T05:22:41.300Z,54.30
2019-06-26T05:25:28.456Z,51.93
2019-06-26T05:28:15.750Z,48.38
2019-06-26T05:31:03.544Z,44.73
2019-06-26T05:33:50.853Z,44.37
2019-06-26T05:36:38.814Z,42.40
2019-06-26T05:39:26.144Z,40.80
2019-06-26T05:42:13.684Z,38.32
2019-06-26T05:45:01.125Z,36.97
2019-06-26T05:47:48.215Z,35.51
2019-06-26T05:50:35.947Z,34.62
2019-06-26T05:53:23.935Z,33.48
2019-06-26T05:56:11.589Z,34.48
2019-06-26T05:58:59.406Z,33.25
2019-06-26T06:01:47.111Z,31.43
2019-06-26T06:04:34.898Z,32.43
2019-06-26T06:07:22.534Z,30.38
2019-06-26T06:10:10.424Z,29.66
2019-06-26T06:12:58.166Z,29.04
2019-06-26T06:15:45.253Z,28.48
2019-06-26T06:18:32.614Z,28.23
2019-06-26T06:21:20.091Z,27.50
2019-06-26T06:24:07.887Z,27.89
2019-06-26T06:26:55.559Z,26.90
2019-06-26T06:29:42.881Z,26.03
2019-06-26T06:32:30.351Z,26.00
2019-06-26T06:35:18.088Z,26.32
2019-06-26T06:38:07.035Z,26.33
2019-06-26T06:40:54.391Z,26.79
2019-06-26T06:43:41.867Z,26.75
2019-06-26T06:46:29.278Z,26.78
2019-06-26T06:49:16.249Z,26.22
2019-06-26T06:52:03.634Z,25.80
2019-06-26T06:54:51.078Z,25.37
2019-06-26T06:57:38.720Z,25.77
2019-06-26T07:00:26.559Z,24.96
2019-06-26T07:03:14.570Z,24.73
2019-06-26T07:06:02.012Z,24.24
2019-06-26T07:08:49.660Z,25.39
2019-06-26T07:11:37.079Z,25.70
2019-06-26T07:14:24.556Z,25.87
2019-06-26T07:17:20.367Z,26.33
2019-06-26T07:20:01.007Z,25.82
2019-06-26T07:22:48.510Z,25.44
2019-06-26T07:25:35.993Z,25.08
2019-06-26T07:28:23.311Z,24.89
2019-06-26T07:31:11.407Z,24.56
2019-06-26T07:33:59.059Z,24.58
2019-06-26T07:36:46.421Z,24.31
2019-06-26T07:39:34.075Z,24.52
2019-06-26T07:42:21.806Z,24.92
2019-06-26T07:45:10.288Z,24.89
2019-06-26T07:47:57.677Z,25.06
2019-06-26T07:50:45.008Z,25.54
2019-06-26T07:53:32.711Z,25.56
2019-06-26T07:56:19.932Z,25.84
2019-06-26T07:59:07.107Z,25.37
2019-06-26T08:01:54.489Z,25.40
2019-06-26T08:04:41.854Z,24.80
2019-06-26T08:07:30.016Z,25.99
2019-06-26T08:10:17.349Z,26.69
2019-06-26T08:13:05.148Z,26.95
2019-06-26T08:15:55.046Z,26.25
2019-06-26T08:18:43.111Z,26.00
2019-06-26T08:21:30.356Z,26.12
2019-06-26T08:24:17.890Z,27.38
2019-06-26T08:27:05.581Z,27.23
2019-06-26T08:29:53.205Z,27.87
2019-06-26T08:32:40.611Z,27.27
2019-06-26T08:35:28.257Z,28.26
2019-06-26T08:38:15.980Z,28.79
2019-06-26T08:41:03.152Z,28.98
2019-06-26T08:43:50.555Z,29.45
2019-06-26T08:46:38.179Z,29.70
2019-06-26T08:49:26.531Z,30.48
2019-06-26T14:07:35.184Z,33.13
2019-06-26T14:10:22.700Z,33.16
2019-06-26T14:13:09.915Z,32.90
2019-06-26T14:15:57.510Z,31.01
2019-06-26T14:18:45.083Z,31.16
2019-06-26T14:21:32.551Z,31.35
2019-06-26T14:24:20.227Z,31.38
2019-06-26T14:27:07.500Z,31.61
2019-06-26T14:29:54.913Z,30.92
2019-06-26T14:32:43.428Z,30.57
2019-06-26T14:35:30.552Z,29.88
2019-06-26T14:38:17.793Z,29.97
2019-06-26T14:41:07.683Z,30.13
2019-06-26T14:43:55.273Z,30.44
2019-06-26T14:46:44.145Z,30.33
2019-06-26T14:49:33.572Z,30.43
2019-06-26T14:52:21.541Z,30.46
2019-06-26T14:55:09.394Z,30.27
2019-06-26T14:57:57.270Z,30.22
2019-06-26T15:00:44.461Z,30.29
2019-06-26T15:03:31.968Z,29.62
2019-06-26T15:06:19.674Z,30.47
2019-06-26T15:09:29.267Z,29.37
2019-06-26T15:12:16.901Z,30.25
2019-06-26T15:15:21.703Z,30.08
2019-06-26T15:21:19.188Z,29.79
2019-06-26T15:24:06.646Z,29.57
2019-06-26T15:26:54.349Z,28.62
2019-06-26T15:29:41.955Z,29.63
2019-06-26T15:32:29.824Z,29.79
2019-06-26T15:35:17.805Z,29.57
2019-06-26T15:38:07.400Z,28.48
2019-06-26T15:40:55.154Z,29.79
2019-06-26T15:43:43.367Z,29.18
2019-06-26T15:46:30.710Z,29.37
2019-06-26T15:49:18.148Z,28.48
2019-06-26T15:52:15.069Z,29.29
2019-06-26T15:54:56.101Z,28.72
2019-06-26T15:57:43.394Z,29.29
2019-06-26T16:00:32.164Z,28.30
2019-06-26T16:03:19.986Z,29.41
2019-06-26T16:06:07.363Z,30.23
2019-06-26T16:08:54.531Z,30.02
2019-06-26T16:11:43.384Z,29.71
2019-06-26T16:14:32.427Z,28.95
2019-06-26T16:17:30.125Z,28.73
2019-06-26T16:20:29.605Z,30.04
2019-06-26T16:23:22.987Z,29.52
2019-06-26T16:26:10.159Z,29.06
2019-06-26T16:29:00.589Z,30.20
2019-06-26T16:31:58.005Z,28.94
2019-06-26T16:35:05.276Z,28.49
2019-06-26T16:37:59.284Z,30.05
2019-06-26T16:40:52.510Z,28.81
2019-06-26T16:43:41.317Z,29.77
2019-06-26T16:46:35.596Z,30.20
2019-06-26T16:49:24.967Z,29.14
2019-06-26T16:52:15.255Z,30.49
2019-06-26T16:55:05.188Z,29.88
2019-06-26T16:57:54.555Z,29.62
2019-06-26T17:00:42.927Z,29.86
2019-06-26T17:03:30.395Z,30.40
2019-06-26T17:06:20.066Z,30.35
2019-06-26T17:09:10.201Z,30.47
2019-06-26T17:11:58.034Z,31.15
2019-06-26T17:14:45.983Z,30.55
2019-06-26T17:17:33.707Z,30.88
2019-06-26T17:20:21.259Z,30.85
2019-06-26T17:23:09.091Z,31.31
2019-06-26T17:25:56.667Z,31.00
2019-06-26T17:28:44.338Z,31.58
2019-06-26T17:31:31.865Z,31.65
2019-06-26T17:34:19.069Z,31.26
2019-06-26T17:37:06.523Z,30.87
2019-06-26T17:39:54.090Z,31.28
2019-06-26T17:42:41.268Z,30.93
2019-06-26T17:45:30.808Z,31.67
2019-06-26T17:48:18.861Z,32.47
2019-06-26T17:51:07.399Z,32.55
2019-06-26T17:53:59.908Z,31.99
2019-06-26T17:56:53.257Z,32.50
2019-06-26T17:59:43.135Z,32.94
2019-06-26T18:02:31.021Z,32.97
2019-06-26T18:05:18.467Z,33.15
2019-06-26T18:08:11.315Z,33.96
2019-06-26T18:10:58.705Z,34.29
2019-06-26T18:13:47.811Z,34.85
2019-06-26T18:16:36.966Z,34.76
2019-06-26T18:19:26.119Z,35.32
2019-06-26T18:22:13.701Z,35.37
2019-06-26T18:25:01.417Z,36.25
2019-06-26T18:27:49.099Z,36.04
2019-06-26T18:30:48.422Z,36.09
2019-06-26T18:33:36.061Z,36.25
2019-06-26T18:36:23.866Z,35.84
2019-06-26T18:39:10.924Z,35.77
2019-06-26T18:42:01.485Z,36.02
2019-06-26T18:44:50.717Z,36.10
2019-06-26T18:47:38.221Z,36.58
2019-06-26T18:50:33.568Z,36.81
2019-06-26T18:53:20.981Z,37.37
2019-06-26T18:56:10.688Z,37.77
2019-06-26T18:58:59.211Z,38.28
2019-06-26T19:01:46.936Z,38.73
2019-06-26T19:04:34.885Z,39.27
2019-06-26T19:07:25.104Z,39.95
2019-06-26T19:10:13.047Z,39.89
2019-06-26T19:13:03.650Z,38.96
2019-06-26T19:15:57.158Z,39.04
2019-06-26T19:18:51.174Z,39.79
2019-06-26T19:21:38.929Z,40.07
2019-06-26T19:24:26.865Z,40.03
2019-06-26T19:27:14.433Z,40.13
2019-06-26T19:30:02.319Z,40.29
2019-06-26T19:32:50.375Z,40.92
2019-06-26T19:35:38.009Z,39.82
2019-06-26T19:38:25.650Z,40.19
2019-06-26T19:41:13.482Z,39.29
2019-06-26T19:44:00.988Z,40.16
2019-06-26T19:46:48.685Z,40.23
2019-06-26T19:49:37.285Z,41.56
2019-06-26T19:52:24.782Z,40.95
2019-06-26T19:55:12.825Z,40.70
2019-06-26T19:58:00.173Z,40.32
2019-06-26T20:00:48.408Z,40.60
2019-06-26T20:03:35.768Z,41.09
2019-06-26T20:06:23.421Z,40.89
2019-06-26T20:09:11.210Z,41.86
2019-06-26T20:12:12.426Z,41.82
2019-06-26T20:15:06.705Z,42.19
2019-06-26T20:17:58.725Z,42.35
2019-06-26T20:20:45.982Z,42.52
2019-06-26T20:23:36.324Z,42.51
2019-06-26T20:26:23.800Z,42.67
2019-06-26T20:29:11.565Z,43.71
2019-06-26T20:31:58.934Z,43.54
2019-06-26T20:34:51.355Z,43.70
2019-06-26T20:37:39.284Z,43.90
2019-06-26T20:40:29.821Z,44.00
2019-06-26T20:43:21.449Z,44.01
2019-06-26T20:46:08.764Z,44.41
2019-06-26T20:49:05.372Z,44.64
2019-06-26T20:51:54.427Z,45.06
2019-06-26T20:54:42.050Z,45.65
2019-06-26T20:57:30.412Z,46.19
2019-06-26T21:00:21.385Z,46.92
2019-06-26T21:03:07.116Z,47.41
2019-06-26T21:05:54.405Z,47.54
2019-06-26T21:08:41.808Z,47.67
2019-06-26T21:11:29.663Z,47.87
2019-06-26T21:14:16.928Z,48.12
2019-06-26T21:17:04.493Z,48.31
2019-06-26T21:20:01.034Z,48.31
2019-06-26T21:22:48.757Z,49.01
2019-06-26T21:25:36.372Z,48.67
2019-06-26T21:28:24.100Z,49.31
2019-06-26T21:31:11.859Z,49.91
2019-06-26T21:34:00.443Z,50.71
2019-06-26T21:36:47.824Z,50.71
2019-06-26T21:39:35.596Z,50.32
2019-06-26T21:42:23.309Z,50.67
2019-06-26T21:45:11.145Z,50.67
2019-06-26T21:47:58.835Z,50.99
2019-06-26T21:50:46.321Z,51.26
2019-06-26T21:53:33.951Z,51.48
2019-06-26T21:56:21.591Z,51.85
2019-06-26T21:59:09.157Z,51.52
2019-06-26T22:01:56.577Z,52.25
2019-06-26T22:04:44.300Z,52.25
2019-06-26T22:07:31.692Z,52.44
2019-06-26T22:10:19.421Z,52.60
2019-06-26T22:13:07.052Z,52.50
2019-06-26T22:15:55.450Z,52.42
2019-06-26T22:18:42.802Z,52.42
2019-06-26T22:21:30.492Z,52.46
2019-06-26T22:24:18.186Z,52.55
2019-06-26T22:27:05.394Z,52.51
2019-06-26T22:29:53.294Z,52.69
2019-06-26T22:32:46.924Z,53.23
2019-06-26T22:35:34.248Z,53.17
2019-06-26T22:38:23.491Z,53.68
2019-06-26T22:41:11.207Z,53.68
2019-06-26T22:44:08.151Z,53.36
2019-06-26T22:46:56.201Z,53.60
2019-06-26T22:49:49.824Z,53.40
2019-06-26T22:52:37.453Z,53.73
2019-06-26T22:55:25.114Z,54.06
2019-06-26T22:58:23.229Z,53.70
2019-06-26T23:01:10.511Z,53.54
2019-06-26T23:03:57.977Z,53.39
2019-06-26T23:06:46.021Z,53.60
2019-06-26T23:09:33.115Z,54.33
2019-06-26T23:12:20.589Z,55.00
2019-06-26T23:15:08.518Z,55.30
2019-06-26T23:17:56.533Z,55.09
2019-06-26T23:20:44.163Z,55.02
2019-06-26T23:23:32.153Z,55.36
2019-06-26T23:26:23.872Z,55.35
2019-06-26T23:29:08.823Z,55.59
2019-06-26T23:32:08.597Z,55.17
2019-06-26T23:34:58.691Z,55.59
2019-06-26T23:37:56.665Z,55.59
2019-06-26T23:40:47.376Z,54.86
2019-06-26T23:43:35.038Z,54.72
2019-06-26T23:46:22.369Z,54.82
2019-06-26T23:49:12.953Z,54.63
2019-06-26T23:52:02.097Z,54.73
2019-06-26T23:54:49.839Z,55.19
2019-06-26T23:57:44.393Z,56.14
